createdAt,value
2019-02-05T00:01:48.850Z,86.56
2019-02-05T00:04:19.148Z,86.50
2019-02-05T00:06:49.511Z,86.28
2019-02-05T00:09:19.755Z,85.99
2019-02-05T00:11:49.977Z,85.76
2019-02-05T00:14:20.352Z,85.79
2019-02-05T00:16:50.600Z,85.74
2019-02-05T00:19:20.971Z,85.45
2019-02-05T00:21:51.206Z,85.29
2019-02-05T00:24:21.440Z,85.44
2019-02-05T00:26:51.778Z,85.26
2019-02-05T00:29:22.149Z,85.06
2019-02-05T00:31:52.353Z,85.10
2019-02-05T00:34:22.621Z,85.17
2019-02-05T00:36:52.898Z,85.13
2019-02-05T00:39:24.178Z,85.22
2019-02-05T00:41:54.764Z,85.27
2019-02-05T00:44:25.016Z,85.07
2019-02-05T00:46:55.208Z,84.96
2019-02-05T00:49:25.439Z,85.01
2019-02-05T00:51:56.734Z,85.08
2019-02-05T00:54:26.986Z,85.32
2019-02-05T00:56:57.265Z,84.99
2019-02-05T00:59:27.482Z,85.17
2019-02-05T01:01:58.094Z,85.45
2019-02-05T01:04:28.301Z,85.33
2019-02-05T01:06:59.866Z,85.46
2019-02-05T01:09:30.401Z,85.34
2019-02-05T01:12:00.762Z,85.54
2019-02-05T01:14:31.169Z,85.56
2019-02-05T01:17:01.503Z,85.91
2019-02-05T01:19:31.713Z,85.75
2019-02-05T01:22:01.962Z,85.54
2019-02-05T01:24:32.193Z,85.34
2019-02-05T01:27:02.458Z,85.48
2019-02-05T01:29:33.384Z,85.73
2019-02-05T01:32:03.609Z,85.96
2019-02-05T01:34:33.831Z,86.53
2019-02-05T01:37:04.117Z,86.67
2019-02-05T01:39:34.286Z,86.77
2019-02-05T01:42:04.475Z,86.86
2019-02-05T01:44:34.689Z,86.91
2019-02-05T01:47:05.291Z,86.75
2019-02-05T01:49:36.010Z,86.46
2019-02-05T01:52:06.459Z,86.40
2019-02-05T01:54:36.683Z,86.41
2019-02-05T01:57:06.927Z,86.28
2019-02-05T01:59:37.180Z,86.41
2019-02-05T02:02:07.675Z,86.33
2019-02-05T02:04:38.064Z,86.49
2019-02-05T02:07:08.849Z,86.49
2019-02-05T02:09:39.151Z,86.12
2019-02-05T02:12:09.415Z,85.45
2019-02-05T02:14:39.633Z,84.98
2019-02-05T02:17:10.218Z,85.01
2019-02-05T02:19:40.496Z,85.00
2019-02-05T02:22:10.691Z,85.16
2019-02-05T02:24:40.957Z,84.91
2019-02-05T02:27:11.160Z,85.36
2019-02-05T02:29:41.377Z,85.07
2019-02-05T02:32:11.886Z,85.22
2019-02-05T02:34:42.131Z,85.04
2019-02-05T02:37:12.329Z,84.95
2019-02-05T02:39:42.693Z,85.11
2019-02-05T02:42:12.912Z,84.83
2019-02-05T02:44:43.196Z,85.20
2019-02-05T02:47:13.396Z,85.43
2019-02-05T02:49:43.603Z,85.46
2019-02-05T02:52:13.824Z,85.44
2019-02-05T02:54:44.093Z,85.05
2019-02-05T02:57:14.310Z,84.87
2019-02-05T02:59:44.798Z,84.71
2019-02-05T03:02:15.265Z,84.64
2019-02-05T03:04:45.523Z,84.52
2019-02-05T03:07:15.869Z,84.57
2019-02-05T03:09:46.120Z,84.75
2019-02-05T03:12:16.310Z,84.71
2019-02-05T03:14:46.864Z,84.87
2019-02-05T03:17:17.075Z,85.16
2019-02-05T03:19:47.253Z,85.30
2019-02-05T03:22:17.519Z,85.36
2019-02-05T03:24:47.744Z,85.27
2019-02-05T03:27:18.542Z,85.35
2019-02-05T03:29:48.861Z,85.48
2019-02-05T03:32:19.337Z,85.62
2019-02-05T03:34:49.543Z,85.77
2019-02-05T03:37:20.941Z,85.93
2019-02-05T03:39:51.166Z,86.22
2019-02-05T03:42:21.443Z,86.22
2019-02-05T03:44:51.654Z,86.28
2019-02-05T03:47:21.936Z,86.45
2019-02-05T03:49:52.951Z,86.27
2019-02-05T03:52:29.668Z,86.37
2019-02-05T03:55:27.883Z,86.60
2019-02-05T03:58:20.187Z,86.69
2019-02-05T04:01:30.092Z,86.64
2019-02-05T04:04:28.458Z,86.64
2019-02-05T04:07:30.684Z,86.58
2019-02-05T04:10:46.184Z,86.93
2019-02-05T04:13:52.174Z,86.90
2019-02-05T04:16:49.856Z,87.14
2019-02-05T04:20:04.109Z,86.76
2019-02-05T04:23:09.944Z,86.69
2019-02-05T04:26:26.517Z,86.57
2019-02-05T04:29:27.830Z,86.69
2019-02-05T04:32:54.213Z,87.16
2019-02-05T04:36:01.266Z,87.08
2019-02-05T04:39:15.201Z,86.65
2019-02-05T04:42:20.459Z,86.58
2019-02-05T04:45:34.094Z,86.74
2019-02-05T04:48:45.218Z,86.40
2019-02-05T04:52:08.277Z,87.76
2019-02-05T04:55:31.447Z,87.25
2019-02-05T04:58:51.815Z,87.76
2019-02-05T05:01:43.320Z,87.40
2019-02-05T05:04:50.259Z,87.37
2019-02-05T05:07:48.485Z,86.99
2019-02-05T05:10:18.719Z,87.78
2019-02-05T05:12:48.932Z,88.07
2019-02-05T05:15:19.352Z,88.16
2019-02-05T05:17:49.609Z,87.92
2019-02-05T05:20:19.897Z,87.88
2019-02-05T05:22:50.943Z,87.45
2019-02-05T05:25:21.493Z,87.22
2019-02-05T05:27:54.891Z,87.04
2019-02-05T05:30:25.232Z,87.29
2019-02-05T05:32:55.448Z,86.97
2019-02-05T05:35:27.100Z,87.10
2019-02-05T05:37:57.920Z,87.12
2019-02-05T05:40:28.123Z,87.39
2019-02-05T05:42:58.373Z,87.58
2019-02-05T05:45:28.687Z,87.63
2019-02-05T05:47:58.901Z,87.16
2019-02-05T05:50:29.468Z,86.78
2019-02-05T05:52:59.717Z,86.56
2019-02-05T05:55:29.913Z,87.35
2019-02-05T05:58:00.313Z,87.25
2019-02-05T06:00:30.495Z,86.80
2019-02-05T06:03:00.670Z,86.95
2019-02-05T06:05:31.663Z,86.99
2019-02-05T06:08:01.912Z,87.32
2019-02-05T06:10:32.153Z,87.53
2019-02-05T06:13:02.381Z,87.91
2019-02-05T06:15:32.571Z,88.17
2019-02-05T06:18:02.895Z,87.90
2019-02-05T06:20:34.861Z,87.59
2019-02-05T06:23:05.076Z,86.96
2019-02-05T06:25:35.307Z,86.65
2019-02-05T06:28:05.824Z,86.28
2019-02-05T06:30:36.121Z,85.57
2019-02-05T06:33:08.706Z,85.28
2019-02-05T06:35:39.278Z,85.04
2019-02-05T06:38:09.521Z,85.00
2019-02-05T06:40:39.689Z,84.84
2019-02-05T06:43:10.981Z,84.63
2019-02-05T06:45:41.796Z,84.65
2019-02-05T06:48:12.256Z,84.76
2019-02-05T06:50:43.206Z,84.56
2019-02-05T06:53:13.872Z,84.43
2019-02-05T06:55:44.076Z,84.23
2019-02-05T06:58:14.324Z,84.23
2019-02-05T07:00:44.729Z,84.31
2019-02-05T07:03:15.450Z,84.34
2019-02-05T07:05:46.007Z,84.28
2019-02-05T07:08:16.263Z,84.43
2019-02-05T07:10:46.509Z,84.53
2019-02-05T07:13:16.826Z,84.36
2019-02-05T07:15:47.147Z,84.14
2019-02-05T07:18:17.769Z,84.01
2019-02-05T07:20:48.041Z,83.54
2019-02-05T07:23:18.288Z,83.39
2019-02-05T07:25:48.723Z,83.36
2019-02-05T07:28:19.020Z,83.35
2019-02-05T07:30:49.564Z,82.89
2019-02-05T07:33:20.442Z,82.62
2019-02-05T07:35:50.737Z,82.11
2019-02-05T07:38:21.091Z,81.67
2019-02-05T07:40:52.414Z,81.14
2019-02-05T07:43:22.742Z,81.17
2019-02-05T07:45:53.049Z,81.01
2019-02-05T07:48:23.460Z,80.72
2019-02-05T07:50:53.740Z,80.32
2019-02-05T07:53:24.024Z,79.61
2019-02-05T07:55:54.360Z,79.40
2019-02-05T07:58:24.658Z,79.17
2019-02-05T08:00:54.974Z,78.42
2019-02-05T08:03:25.187Z,77.96
2019-02-05T08:05:56.146Z,77.13
2019-02-05T08:08:26.613Z,76.40
2019-02-05T08:10:56.929Z,75.64
2019-02-05T08:13:27.393Z,73.93
2019-02-05T08:15:57.780Z,72.39
2019-02-05T08:18:28.149Z,71.73
2019-02-05T08:20:58.525Z,71.59
2019-02-05T08:23:29.559Z,69.41
2019-02-05T08:25:59.957Z,68.42
2019-02-05T08:28:40.633Z,68.23
2019-02-05T08:31:02.479Z,68.83
2019-02-05T08:33:32.723Z,68.92
2019-02-05T08:36:04.826Z,66.25
2019-02-05T08:38:35.125Z,67.20
2019-02-05T08:41:06.484Z,67.17
2019-02-05T08:43:37.000Z,67.22
2019-02-05T08:46:08.590Z,67.12
2019-02-05T08:48:38.938Z,66.97
2019-02-05T08:51:09.311Z,67.37
2019-02-05T08:53:42.820Z,67.68
2019-02-05T08:56:17.262Z,67.33
2019-02-05T08:58:52.967Z,68.53
2019-02-05T09:01:29.756Z,68.62
2019-02-05T09:04:00.481Z,68.65
2019-02-05T09:06:35.436Z,68.87
2019-02-05T09:09:09.804Z,68.57
2019-02-05T09:11:41.012Z,68.04
2019-02-05T09:14:47.362Z,68.63
2019-02-05T09:17:07.334Z,66.21
2019-02-05T09:19:37.951Z,62.21
2019-02-05T09:22:08.370Z,57.98
2019-02-05T09:24:53.964Z,54.49
2019-02-05T09:27:24.312Z,57.00
2019-02-05T09:30:05.342Z,57.55
2019-02-05T09:32:35.628Z,56.29
2019-02-05T09:35:07.014Z,57.56
2019-02-05T09:37:37.338Z,59.40
2019-02-05T09:40:10.282Z,60.12
2019-02-05T09:42:40.680Z,58.98
2019-02-05T09:45:12.819Z,57.47
2019-02-05T09:47:43.621Z,57.70
2019-02-05T09:50:14.962Z,59.09
2019-02-05T09:52:45.543Z,60.92
2019-02-05T09:55:16.332Z,59.70
2019-02-05T09:57:46.740Z,60.55
2019-02-05T10:00:19.961Z,61.41
2019-02-05T10:02:50.450Z,62.64
2019-02-05T10:05:22.950Z,63.63
2019-02-05T10:07:53.760Z,64.17
2019-02-05T10:10:24.304Z,63.91
2019-02-05T10:12:55.512Z,63.29
2019-02-05T10:15:28.466Z,63.04
2019-02-05T10:17:58.706Z,62.06
2019-02-05T10:20:29.240Z,62.26
2019-02-05T10:23:02.670Z,63.60
2019-02-05T10:25:32.969Z,61.57
2019-02-05T10:28:03.210Z,62.14
2019-02-05T10:30:36.006Z,62.57
2019-02-05T10:33:07.409Z,62.95
2019-02-05T10:35:37.679Z,64.52
2019-02-05T10:38:08.246Z,63.32
2019-02-05T10:40:38.685Z,61.83
2019-02-05T10:43:09.083Z,61.71
2019-02-05T10:45:39.624Z,63.05
2019-02-05T10:48:11.092Z,62.35
2019-02-05T10:50:41.560Z,62.06
2019-02-05T10:53:11.805Z,61.84
2019-02-05T10:55:42.209Z,62.14
2019-02-05T10:58:22.113Z,63.72
2019-02-05T11:01:13.780Z,64.28
2019-02-05T11:03:59.714Z,63.42
2019-02-05T11:06:43.158Z,64.15
2019-02-05T11:09:38.389Z,64.11
2019-02-05T11:12:17.256Z,63.88
2019-02-05T11:14:49.187Z,64.02
2019-02-05T11:17:19.669Z,65.33
2019-02-05T11:19:49.944Z,65.66
2019-02-05T11:22:20.868Z,65.73
2019-02-05T11:24:52.147Z,68.33
2019-02-05T11:27:22.461Z,67.05
2019-02-05T11:29:56.003Z,65.90
2019-02-05T11:32:27.675Z,66.99
2019-02-05T11:34:57.915Z,68.17
2019-02-05T11:37:28.465Z,66.28
2019-02-05T11:39:58.718Z,65.87
2019-02-05T11:42:29.470Z,66.34
2019-02-05T11:44:59.694Z,69.14
2019-02-05T11:47:30.283Z,68.66
2019-02-05T11:50:00.806Z,68.59
2019-02-05T11:52:32.364Z,68.98
2019-02-05T11:55:02.919Z,67.54
2019-02-05T11:57:33.673Z,67.82
2019-02-05T12:00:04.220Z,67.94
2019-02-05T12:02:36.847Z,68.73
2019-02-05T12:05:07.503Z,68.08
2019-02-05T12:07:37.858Z,67.96
2019-02-05T12:10:10.203Z,68.28
2019-02-05T12:12:40.673Z,67.95
2019-02-05T12:15:12.069Z,68.53
2019-02-05T12:17:42.489Z,68.96
2019-02-05T12:20:14.053Z,69.47
2019-02-05T12:22:44.659Z,69.29
2019-02-05T12:25:16.243Z,70.65
2019-02-05T12:27:46.676Z,69.89
2019-02-05T12:30:24.045Z,68.85
2019-02-05T12:32:54.817Z,69.72
2019-02-05T12:35:25.095Z,69.11
2019-02-05T12:37:55.753Z,68.69
2019-02-05T12:40:26.583Z,69.79
2019-02-05T12:42:57.180Z,69.58
2019-02-05T12:45:29.261Z,70.94
2019-02-05T12:48:00.127Z,69.45
2019-02-05T12:50:32.531Z,69.21
2019-02-05T12:53:03.247Z,68.90
2019-02-05T12:55:33.633Z,68.04
2019-02-05T12:58:04.313Z,69.08
2019-02-05T13:00:37.804Z,70.20
2019-02-05T13:03:10.483Z,70.11
2019-02-05T13:05:42.554Z,72.09
2019-02-05T13:08:12.949Z,71.04
2019-02-05T13:10:45.449Z,71.73
2019-02-05T13:13:18.172Z,72.12
2019-02-05T13:15:48.221Z,73.10
2019-02-05T13:18:19.839Z,72.30
2019-02-05T13:20:51.201Z,72.10
2019-02-05T13:23:21.806Z,71.87
2019-02-05T13:25:52.011Z,72.14
2019-02-05T13:28:22.550Z,72.22
2019-02-05T13:30:52.759Z,72.72
2019-02-05T13:33:23.473Z,71.76
2019-02-05T13:35:55.563Z,72.76
2019-02-05T13:38:25.931Z,73.60
2019-02-05T13:40:56.514Z,72.68
2019-02-05T13:43:26.902Z,73.52
2019-02-05T13:45:57.431Z,72.32
2019-02-05T13:48:28.050Z,72.04
2019-02-05T13:50:58.337Z,71.90
2019-02-05T13:53:28.640Z,71.80
2019-02-05T13:55:58.911Z,72.09
2019-02-05T13:58:30.715Z,71.87
2019-02-05T14:01:01.020Z,73.18
2019-02-05T14:03:31.322Z,72.93
2019-02-05T14:06:01.573Z,72.49
2019-02-05T14:08:31.940Z,73.25
2019-02-05T14:11:02.568Z,73.23
2019-02-05T14:13:33.274Z,73.35
2019-02-05T14:16:06.244Z,73.48
2019-02-05T14:18:36.567Z,74.28
2019-02-05T14:21:06.830Z,74.47
2019-02-05T14:23:37.192Z,74.14
2019-02-05T14:26:07.768Z,74.14
2019-02-05T14:28:39.512Z,74.24
2019-02-05T14:31:10.045Z,74.57
2019-02-05T14:33:40.337Z,74.89
2019-02-05T14:36:10.767Z,75.88
2019-02-05T14:38:41.416Z,76.49
2019-02-05T14:41:11.883Z,77.06
2019-02-05T14:43:45.467Z,75.84
2019-02-05T14:46:18.490Z,75.94
2019-02-05T14:49:00.519Z,76.44
2019-02-05T14:51:31.906Z,77.39
2019-02-05T14:54:12.583Z,77.41
2019-02-05T14:57:06.295Z,77.89
2019-02-05T14:59:52.026Z,78.69
2019-02-05T15:02:23.019Z,77.36
2019-02-05T15:05:03.594Z,77.63
2019-02-05T15:07:37.508Z,78.93
2019-02-05T15:10:09.949Z,79.17
2019-02-05T15:12:45.499Z,79.15
2019-02-05T15:15:18.321Z,80.04
2019-02-05T15:17:49.111Z,79.59
2019-02-05T15:20:31.174Z,79.44
2019-02-05T15:23:02.183Z,79.91
2019-02-05T15:25:36.805Z,79.75
2019-02-05T15:28:11.742Z,79.47
2019-02-05T15:30:54.871Z,79.76
2019-02-05T15:33:45.708Z,79.29
2019-02-05T15:36:35.349Z,78.24
2019-02-05T15:39:12.551Z,78.59
2019-02-05T15:41:43.049Z,78.09
2019-02-05T15:44:13.672Z,79.02
2019-02-05T15:46:44.003Z,79.28
2019-02-05T15:49:14.214Z,78.44
2019-02-05T15:51:44.629Z,79.12
2019-02-05T15:54:14.919Z,80.11
2019-02-05T15:56:46.168Z,79.47
2019-02-05T15:59:16.654Z,79.66
2019-02-05T16:01:46.983Z,79.87
2019-02-05T16:04:17.347Z,80.43
2019-02-05T16:06:47.800Z,80.16
2019-02-05T16:09:18.143Z,79.70
2019-02-05T16:11:50.384Z,80.01
2019-02-05T16:14:21.071Z,81.38
2019-02-05T16:16:51.332Z,81.96
2019-02-05T16:19:21.597Z,80.86
2019-02-05T16:21:51.936Z,81.39
2019-02-05T16:24:23.233Z,81.52
2019-02-05T16:26:54.582Z,81.40
2019-02-05T16:29:25.008Z,80.57
2019-02-05T16:31:55.260Z,81.58
2019-02-05T16:34:25.600Z,81.07
2019-02-05T16:36:55.906Z,80.86
2019-02-05T16:39:26.587Z,82.22
2019-02-05T16:41:56.857Z,82.44
2019-02-05T16:44:27.264Z,81.31
2019-02-05T16:46:57.515Z,81.22
2019-02-05T16:49:27.925Z,81.22
2019-02-05T16:51:58.491Z,81.61
2019-02-05T16:54:28.767Z,80.79
2019-02-05T16:56:59.051Z,81.72
2019-02-05T16:59:29.335Z,81.64
2019-02-05T17:02:00.581Z,81.23
2019-02-05T17:04:31.027Z,81.48
2019-02-05T17:07:01.644Z,81.37
2019-02-05T17:09:33.982Z,81.57
2019-02-05T17:12:04.419Z,81.54
2019-02-05T17:14:34.999Z,81.31
2019-02-05T17:17:05.254Z,81.65
2019-02-05T17:19:35.483Z,81.03
2019-02-05T17:22:06.218Z,81.33
2019-02-05T17:24:36.570Z,81.22
2019-02-05T17:27:07.073Z,81.65
2019-02-05T17:29:37.320Z,81.33
2019-02-05T17:32:07.939Z,81.71
2019-02-05T17:34:38.532Z,81.60
2019-02-05T17:37:08.753Z,81.58
2019-02-05T17:39:41.018Z,80.74
2019-02-05T17:42:11.440Z,80.87
2019-02-05T17:45:40.225Z,81.38
2019-02-05T17:49:06.600Z,80.72
2019-02-05T17:51:37.202Z,80.38
2019-02-05T17:54:07.774Z,80.51
2019-02-05T17:56:38.180Z,81.27
2019-02-05T17:59:08.447Z,82.18
2019-02-05T18:01:39.022Z,81.65
2019-02-05T18:04:09.374Z,82.45
2019-02-05T18:06:39.609Z,81.25
2019-02-05T18:09:10.859Z,80.97
2019-02-05T18:11:41.148Z,81.77
2019-02-05T18:14:11.409Z,81.71
2019-02-05T18:16:42.006Z,82.50
2019-02-05T18:19:12.288Z,82.21
2019-02-05T18:21:42.811Z,82.05
2019-02-05T18:24:13.122Z,80.94
2019-02-05T18:26:43.375Z,81.19
2019-02-05T18:29:13.637Z,82.06
2019-02-05T18:31:43.914Z,81.98
2019-02-05T18:34:14.883Z,81.45
2019-02-05T18:36:46.081Z,81.54
2019-02-05T18:39:16.321Z,82.02
2019-02-05T18:41:46.558Z,81.17
2019-02-05T18:44:16.914Z,82.21
2019-02-05T18:46:47.210Z,80.80
2019-02-05T18:49:17.893Z,80.83
2019-02-05T18:51:48.134Z,80.16
2019-02-05T18:54:18.399Z,80.41
2019-02-05T18:56:48.813Z,81.19
2019-02-05T18:59:19.178Z,81.25
2019-02-05T19:01:49.429Z,81.90
2019-02-05T19:04:19.913Z,81.66
2019-02-05T19:06:51.470Z,81.21
2019-02-05T19:09:21.905Z,81.20
2019-02-05T19:11:52.124Z,82.05
2019-02-05T19:14:23.331Z,82.26
2019-02-05T19:16:54.437Z,81.46
2019-02-05T19:19:24.715Z,81.15
2019-02-05T19:21:54.920Z,81.29
2019-02-05T19:24:53.128Z,81.38
2019-02-05T19:27:24.377Z,81.88
2019-02-05T19:29:55.862Z,81.66
2019-02-05T19:32:29.443Z,81.96
2019-02-05T19:35:00.715Z,82.53
2019-02-05T19:37:33.701Z,82.31
2019-02-05T19:40:07.217Z,81.69
2019-02-05T19:42:37.486Z,81.55
2019-02-05T19:45:34.603Z,81.18
2019-02-05T19:48:07.621Z,81.33
2019-02-05T19:50:39.160Z,82.72
2019-02-05T19:53:10.426Z,83.04
2019-02-05T19:55:40.787Z,82.46
2019-02-05T19:58:11.592Z,82.25
2019-02-05T20:00:43.965Z,82.29
2019-02-05T20:03:14.702Z,82.61
2019-02-05T20:05:44.953Z,82.72
2019-02-05T20:08:15.168Z,82.68
2019-02-05T20:10:46.897Z,82.79
2019-02-05T20:13:18.290Z,83.24
2019-02-05T20:15:51.262Z,84.01
2019-02-05T20:18:21.907Z,84.43
2019-02-05T20:20:52.189Z,83.19
2019-02-05T20:23:22.405Z,82.46
2019-02-05T20:25:52.746Z,82.73
2019-02-05T20:28:23.219Z,82.54
2019-02-05T20:30:56.062Z,82.26
2019-02-05T20:33:27.891Z,83.15
2019-02-05T20:35:58.472Z,82.15
2019-02-05T20:38:30.551Z,82.04
2019-02-05T20:41:02.331Z,81.61
2019-02-05T20:43:34.798Z,81.97
2019-02-05T20:46:05.407Z,82.31
2019-02-05T20:48:35.607Z,82.76
2019-02-05T20:51:05.939Z,82.65
2019-02-05T20:53:37.532Z,82.47
2019-02-05T20:56:08.160Z,82.68
2019-02-05T20:58:40.010Z,83.59
2019-02-05T21:01:10.246Z,82.86
2019-02-05T21:03:40.677Z,82.99
2019-02-05T21:06:13.019Z,82.76
2019-02-05T21:08:43.227Z,82.46
2019-02-05T21:11:14.929Z,83.99
2019-02-05T21:13:48.581Z,84.48
2019-02-05T21:16:20.108Z,84.78
2019-02-05T21:18:53.485Z,84.76
2019-02-05T21:21:23.820Z,84.52
2019-02-05T21:23:54.146Z,83.69
2019-02-05T21:26:40.005Z,84.31
2019-02-05T21:29:12.459Z,84.67
2019-02-05T21:31:43.003Z,84.71
2019-02-05T21:34:16.028Z,84.61
2019-02-05T21:36:45.259Z,84.73
2019-02-05T21:39:15.968Z,85.69
2019-02-05T21:41:46.369Z,85.79
2019-02-05T21:44:16.587Z,86.25
2019-02-05T21:46:46.919Z,86.61
2019-02-05T21:49:17.181Z,85.93
2019-02-05T21:51:47.442Z,86.13
2019-02-05T21:54:19.377Z,86.43
2019-02-05T21:56:49.647Z,86.46
2019-02-05T21:59:19.951Z,86.71
2019-02-05T22:01:50.622Z,86.32
2019-02-05T22:04:27.260Z,86.43
2019-02-05T22:06:52.954Z,86.68
2019-02-05T22:09:23.249Z,86.64
2019-02-05T22:11:53.582Z,86.30
2019-02-05T22:14:23.972Z,86.73
2019-02-05T22:16:54.680Z,86.93
2019-02-05T22:19:27.128Z,85.89
2019-02-05T22:21:57.407Z,86.35
2019-02-05T22:24:27.654Z,86.03
2019-02-05T22:26:58.054Z,86.18
2019-02-05T22:29:28.299Z,86.40
2019-02-05T22:31:58.573Z,86.08
2019-02-05T22:34:38.831Z,85.41
2019-02-05T22:37:08.477Z,85.27
2019-02-05T22:39:40.377Z,85.14
2019-02-05T22:42:11.612Z,85.48
2019-02-05T22:44:42.166Z,85.07
2019-02-05T22:47:54.838Z,85.53
2019-02-05T22:50:26.559Z,84.96
2019-02-05T22:52:56.988Z,84.21
2019-02-05T22:55:27.280Z,84.96
2019-02-05T22:57:57.707Z,84.74
2019-02-05T23:00:52.075Z,85.25
2019-02-05T23:03:49.688Z,84.62
2019-02-05T23:06:48.365Z,84.81
2019-02-05T23:09:45.380Z,84.31
2019-02-05T23:12:28.288Z,85.03
2019-02-05T23:15:02.212Z,84.28
2019-02-05T23:17:32.442Z,84.94
2019-02-05T23:20:03.073Z,84.17
2019-02-05T23:22:33.337Z,84.82
2019-02-05T23:25:05.682Z,84.33
2019-02-05T23:27:35.959Z,83.83
2019-02-05T23:30:11.924Z,83.67
2019-02-05T23:32:42.201Z,84.07
2019-02-05T23:35:12.485Z,84.17
2019-02-05T23:37:42.715Z,83.86
2019-02-05T23:40:13.146Z,83.72
2019-02-05T23:42:43.627Z,83.53
2019-02-05T23:45:14.638Z,84.13
2019-02-05T23:47:44.872Z,83.88
2019-02-05T23:50:16.425Z,83.57
2019-02-05T23:52:47.094Z,84.72
2019-02-05T23:55:17.311Z,84.68
2019-02-05T23:57:47.492Z,84.77
